createdAt,value
2019-05-09T00:01:33.556Z,12.00
2019-05-09T00:04:03.897Z,12.00
2019-05-09T00:06:34.156Z,11.90
2019-05-09T00:09:06.004Z,11.80
2019-05-09T00:11:36.502Z,11.80
2019-05-09T00:14:06.765Z,11.70
2019-05-09T00:16:37.010Z,11.70
2019-05-09T00:19:07.550Z,11.60
2019-05-09T00:21:39.441Z,11.60
2019-05-09T00:24:09.693Z,11.60
2019-05-09T00:26:39.956Z,11.60
2019-05-09T00:29:13.930Z,11.60
2019-05-09T00:31:45.453Z,11.60
2019-05-09T00:34:23.457Z,11.50
2019-05-09T00:36:54.023Z,11.50
2019-05-09T00:39:24.278Z,11.50
2019-05-09T00:41:54.531Z,11.50
2019-05-09T00:44:29.123Z,11.50
2019-05-09T00:47:01.041Z,11.50
2019-05-09T00:49:31.491Z,11.60
2019-05-09T00:52:03.534Z,11.50
2019-05-09T00:54:33.678Z,11.60
2019-05-09T00:57:03.973Z,11.50
2019-05-09T00:59:34.249Z,11.60
2019-05-09T01:02:04.529Z,11.60
2019-05-09T01:04:34.811Z,11.60
2019-05-09T01:07:05.651Z,11.60
2019-05-09T01:09:35.908Z,11.50
2019-05-09T01:12:06.166Z,11.50
2019-05-09T01:14:36.415Z,11.50
2019-05-09T01:17:06.706Z,11.60
2019-05-09T01:19:36.985Z,11.60
2019-05-09T01:22:07.306Z,11.60
2019-05-09T01:24:37.587Z,11.60
2019-05-09T01:27:27.268Z,11.60
2019-05-09T01:29:57.547Z,11.60
2019-05-09T01:32:47.393Z,11.60
2019-05-09T01:35:17.655Z,11.50
2019-05-09T01:37:47.906Z,11.60
2019-05-09T01:40:18.191Z,11.60
2019-05-09T01:42:48.465Z,11.60
2019-05-09T01:45:18.705Z,11.60
2019-05-09T01:47:48.982Z,11.60
2019-05-09T01:50:19.230Z,11.60
2019-05-09T01:52:49.504Z,11.60
2019-05-09T01:55:19.751Z,11.60
2019-05-09T01:57:50.026Z,11.50
2019-05-09T02:00:20.274Z,11.60
2019-05-09T02:02:51.097Z,11.50
2019-05-09T02:05:21.346Z,11.50
2019-05-09T02:07:51.603Z,11.50
2019-05-09T02:10:23.278Z,11.50
2019-05-09T02:12:53.914Z,11.50
2019-05-09T02:15:37.328Z,11.50
2019-05-09T02:18:17.868Z,11.60
2019-05-09T02:20:48.144Z,11.60
2019-05-09T02:23:18.387Z,11.60
2019-05-09T02:25:48.964Z,11.60
2019-05-09T02:28:19.481Z,11.70
2019-05-09T02:30:49.765Z,11.60
2019-05-09T02:33:20.038Z,11.60
2019-05-09T02:35:56.659Z,11.60
2019-05-09T02:38:22.286Z,11.60
2019-05-09T02:40:52.554Z,11.60
2019-05-09T02:43:23.097Z,11.60
2019-05-09T02:45:59.442Z,11.60
2019-05-09T02:48:29.608Z,11.60
2019-05-09T02:51:00.535Z,11.60
2019-05-09T02:53:30.999Z,11.60
2019-05-09T02:56:01.548Z,11.60
2019-05-09T02:58:33.471Z,11.70
2019-05-09T03:01:07.979Z,11.70
2019-05-09T03:03:39.413Z,11.70
2019-05-09T03:06:09.863Z,11.60
2019-05-09T03:08:40.153Z,11.70
2019-05-09T03:11:10.387Z,11.70
2019-05-09T03:13:40.805Z,11.70
2019-05-09T03:16:12.746Z,11.70
2019-05-09T03:18:42.991Z,11.70
2019-05-09T03:21:24.602Z,11.70
2019-05-09T03:23:54.862Z,11.60
2019-05-09T03:26:29.306Z,11.60
2019-05-09T03:29:19.101Z,11.60
2019-05-09T03:31:50.623Z,11.60
2019-05-09T03:34:20.960Z,11.60
2019-05-09T03:36:51.260Z,11.50
2019-05-09T03:39:21.811Z,11.50
2019-05-09T03:41:52.059Z,11.40
2019-05-09T03:44:22.598Z,11.40
2019-05-09T03:47:03.746Z,11.40
2019-05-09T03:49:34.042Z,11.40
2019-05-09T03:52:04.355Z,11.50
2019-05-09T03:54:34.658Z,11.50
2019-05-09T03:57:07.722Z,11.50
2019-05-09T03:59:39.772Z,11.50
2019-05-09T04:02:10.677Z,11.40
2019-05-09T04:04:40.953Z,11.40
2019-05-09T04:07:11.225Z,11.40
2019-05-09T04:09:41.497Z,11.40
2019-05-09T04:12:11.773Z,11.40
2019-05-09T04:14:42.056Z,11.50
2019-05-09T04:17:12.797Z,11.50
2019-05-09T04:19:43.081Z,11.50
2019-05-09T04:22:13.321Z,11.50
2019-05-09T04:24:43.971Z,11.50
2019-05-09T04:27:17.803Z,11.60
2019-05-09T04:29:48.382Z,11.70
2019-05-09T04:32:18.801Z,11.80
2019-05-09T04:34:49.089Z,12.00
2019-05-09T04:37:19.360Z,12.20
2019-05-09T04:39:53.943Z,12.30
2019-05-09T04:42:22.910Z,12.50
2019-05-09T04:44:57.241Z,12.70
2019-05-09T04:47:27.839Z,12.80
2019-05-09T04:49:58.475Z,13.00
2019-05-09T04:52:28.882Z,13.00
2019-05-09T04:54:59.224Z,12.90
2019-05-09T04:57:29.512Z,12.90
2019-05-09T04:59:59.783Z,12.90
2019-05-09T05:02:38.122Z,12.90
2019-05-09T05:05:08.494Z,13.00
2019-05-09T05:07:38.763Z,13.10
2019-05-09T05:10:09.234Z,13.20
2019-05-09T05:12:39.566Z,13.30
2019-05-09T05:15:10.488Z,13.50
2019-05-09T05:17:40.759Z,13.70
2019-05-09T05:20:14.331Z,13.90
2019-05-09T05:22:48.976Z,13.90
2019-05-09T05:25:19.243Z,13.90
2019-05-09T05:27:49.490Z,13.90
2019-05-09T05:30:19.763Z,13.90
2019-05-09T05:32:54.373Z,13.80
2019-05-09T05:35:29.215Z,13.70
2019-05-09T05:37:59.493Z,13.50
2019-05-09T05:40:33.040Z,13.40
2019-05-09T05:43:01.721Z,13.30
2019-05-09T05:45:33.673Z,13.40
2019-05-09T05:48:07.803Z,13.70
2019-05-09T05:50:38.244Z,13.90
2019-05-09T05:53:08.667Z,14.10
2019-05-09T05:55:39.002Z,14.10
2019-05-09T05:58:09.281Z,14.10
2019-05-09T06:00:39.862Z,14.20
2019-05-09T06:03:10.106Z,14.30
2019-05-09T06:05:40.378Z,14.50
2019-05-09T06:08:10.930Z,14.60
2019-05-09T06:10:41.426Z,14.80
2019-05-09T06:13:11.745Z,14.90
2019-05-09T06:15:42.302Z,14.80
2019-05-09T06:18:12.651Z,14.80
2019-05-09T06:20:45.645Z,14.70
2019-05-09T06:23:17.440Z,14.60
2019-05-09T06:25:48.428Z,14.50
2019-05-09T06:28:18.976Z,14.40
2019-05-09T06:30:49.266Z,14.40
2019-05-09T06:33:19.538Z,14.40
2019-05-09T06:35:49.780Z,14.50
2019-05-09T06:38:20.110Z,14.60
2019-05-09T06:40:50.713Z,14.70
2019-05-09T06:43:22.883Z,14.80
2019-05-09T06:45:54.829Z,14.80
2019-05-09T06:48:28.305Z,14.80
2019-05-09T06:50:58.338Z,14.80
2019-05-09T06:53:28.585Z,14.80
2019-05-09T06:55:58.864Z,14.80
2019-05-09T06:58:33.031Z,14.90
2019-05-09T07:01:07.530Z,14.90
2019-05-09T07:03:57.591Z,14.90
2019-05-09T07:06:29.513Z,15.10
2019-05-09T07:09:01.438Z,15.40
2019-05-09T07:11:31.672Z,15.70
2019-05-09T07:14:01.914Z,16.00
2019-05-09T07:16:32.190Z,16.00
2019-05-09T07:19:02.430Z,15.90
2019-05-09T07:21:53.211Z,16.00
2019-05-09T07:24:23.503Z,16.40
2019-05-09T07:26:53.776Z,16.70
2019-05-09T07:29:24.305Z,16.70
2019-05-09T07:31:57.327Z,16.90
2019-05-09T07:34:32.223Z,17.00
2019-05-09T07:37:02.482Z,17.00
2019-05-09T07:39:33.209Z,17.00
2019-05-09T07:42:03.471Z,16.80
2019-05-09T07:44:46.233Z,16.70
2019-05-09T07:47:07.551Z,16.40
2019-05-09T07:49:37.896Z,16.40
2019-05-09T07:52:10.225Z,16.20
2019-05-09T07:54:40.201Z,16.10
2019-05-09T07:57:10.752Z,16.20
2019-05-09T07:59:41.028Z,16.30
2019-05-09T08:02:11.268Z,16.30
2019-05-09T08:04:41.563Z,16.20
2019-05-09T08:07:11.826Z,16.00
2019-05-09T08:09:42.157Z,16.10
2019-05-09T08:12:12.435Z,16.20
2019-05-09T08:14:42.707Z,16.50
2019-05-09T08:17:12.945Z,16.90
2019-05-09T08:19:43.238Z,17.10
2019-05-09T08:22:13.488Z,17.30
2019-05-09T08:24:43.742Z,17.50
2019-05-09T08:27:14.396Z,17.60
2019-05-09T08:29:44.675Z,17.60
2019-05-09T08:32:14.922Z,17.30
2019-05-09T08:34:45.206Z,16.80
2019-05-09T08:37:17.431Z,16.60
2019-05-09T08:39:48.446Z,16.70
2019-05-09T08:42:20.067Z,16.80
2019-05-09T08:44:50.619Z,16.80
2019-05-09T08:47:20.879Z,16.70
2019-05-09T08:50:11.329Z,16.80
2019-05-09T08:52:41.589Z,16.80
2019-05-09T08:55:11.833Z,17.30
2019-05-09T08:57:42.260Z,17.60
2019-05-09T09:00:13.445Z,17.80
2019-05-09T09:02:43.698Z,18.10
2019-05-09T09:05:14.179Z,18.40
2019-05-09T09:07:44.607Z,18.70
2019-05-09T09:10:15.451Z,18.90
2019-05-09T09:12:47.733Z,19.20
2019-05-09T09:15:18.154Z,19.20
2019-05-09T09:17:49.209Z,19.10
2019-05-09T09:20:19.532Z,18.90
2019-05-09T09:22:49.813Z,18.70
2019-05-09T09:25:20.094Z,18.50
2019-05-09T09:27:51.235Z,18.10
2019-05-09T09:30:25.028Z,18.00
2019-05-09T09:32:53.804Z,18.20
2019-05-09T09:35:24.660Z,18.50
2019-05-09T09:37:57.762Z,18.90
2019-05-09T09:40:27.917Z,19.70
2019-05-09T09:42:58.490Z,19.70
2019-05-09T09:45:28.796Z,19.90
2019-05-09T09:47:59.433Z,19.80
2019-05-09T09:50:29.625Z,19.70
2019-05-09T09:53:00.276Z,19.50
2019-05-09T09:55:30.952Z,19.50
2019-05-09T09:58:01.258Z,19.50
2019-05-09T10:00:42.298Z,19.50
2019-05-09T10:03:12.682Z,19.50
2019-05-09T10:05:42.953Z,19.20
2019-05-09T10:08:14.123Z,19.20
2019-05-09T10:10:44.788Z,19.30
2019-05-09T10:13:15.056Z,19.60
2019-05-09T10:15:58.534Z,19.90
2019-05-09T10:18:43.216Z,20.20
2019-05-09T10:21:15.399Z,19.70
2019-05-09T10:23:48.128Z,19.60
2019-05-09T10:26:17.913Z,20.10
2019-05-09T10:28:48.667Z,20.70
2019-05-09T10:31:19.286Z,20.90
2019-05-09T10:33:49.593Z,20.90
2019-05-09T10:36:19.878Z,20.80
2019-05-09T10:38:50.163Z,20.30
2019-05-09T10:41:20.607Z,19.70
2019-05-09T10:44:08.863Z,19.20
2019-05-09T10:46:57.115Z,18.70
2019-05-09T10:49:21.549Z,18.20
2019-05-09T10:51:51.795Z,17.60
2019-05-09T10:54:22.088Z,17.40
2019-05-09T10:56:52.364Z,17.30
2019-05-09T10:59:22.597Z,17.30
2019-05-09T11:01:52.913Z,17.40
2019-05-09T11:04:23.191Z,17.60
2019-05-09T11:06:53.426Z,17.90
2019-05-09T11:09:23.998Z,18.30
2019-05-09T11:11:54.303Z,18.70
2019-05-09T11:14:36.131Z,19.10
2019-05-09T11:17:07.864Z,19.60
2019-05-09T11:19:29.000Z,20.00
2019-05-09T11:21:59.215Z,20.30
2019-05-09T11:24:41.688Z,20.80
2019-05-09T11:27:02.068Z,21.30
2019-05-09T11:29:32.552Z,21.60
2019-05-09T11:32:02.861Z,21.40
2019-05-09T11:34:33.102Z,21.20
2019-05-09T11:37:03.351Z,21.00
2019-05-09T11:39:39.018Z,20.60
2019-05-09T11:42:05.711Z,20.20
2019-05-09T11:44:38.403Z,19.80
2019-05-09T11:47:27.680Z,19.40
2019-05-09T11:49:39.969Z,19.10
2019-05-09T11:52:10.206Z,18.80
2019-05-09T11:54:40.458Z,18.50
2019-05-09T11:57:10.712Z,18.30
2019-05-09T11:59:41.002Z,18.20
2019-05-09T12:02:11.319Z,18.00
2019-05-09T12:04:41.606Z,17.60
2019-05-09T12:07:11.928Z,16.80
2019-05-09T12:09:42.187Z,15.80
2019-05-09T12:12:12.468Z,15.40
2019-05-09T12:14:42.715Z,15.50
2019-05-09T12:17:12.968Z,15.80
2019-05-09T12:19:43.460Z,16.20
2019-05-09T12:22:13.738Z,16.80
2019-05-09T12:24:44.249Z,17.70
2019-05-09T12:27:14.498Z,18.70
2019-05-09T12:29:44.778Z,19.70
2019-05-09T12:32:15.036Z,20.20
2019-05-09T12:34:47.839Z,20.60
2019-05-09T12:37:18.237Z,20.80
2019-05-09T12:39:48.808Z,20.90
2019-05-09T12:42:19.163Z,20.80
2019-05-09T12:44:49.810Z,20.80
2019-05-09T12:47:20.086Z,21.00
2019-05-09T12:49:50.319Z,21.30
2019-05-09T12:52:20.573Z,21.70
2019-05-09T12:54:50.847Z,21.70
2019-05-09T12:57:21.138Z,21.40
2019-05-09T12:59:52.884Z,21.20
2019-05-09T13:02:23.368Z,20.80
2019-05-09T13:04:53.683Z,20.50
2019-05-09T13:07:24.003Z,20.40
2019-05-09T13:09:54.249Z,20.50
2019-05-09T13:12:24.522Z,20.40
2019-05-09T13:14:54.831Z,20.50
2019-05-09T13:17:29.700Z,21.00
2019-05-09T13:19:59.938Z,21.50
2019-05-09T13:22:30.208Z,22.00
2019-05-09T13:25:02.883Z,22.50
2019-05-09T13:27:32.937Z,22.20
2019-05-09T13:30:03.891Z,21.80
2019-05-09T13:32:34.149Z,21.40
2019-05-09T13:35:05.406Z,21.00
2019-05-09T13:37:38.252Z,20.40
2019-05-09T13:40:08.598Z,19.80
2019-05-09T13:42:39.678Z,19.50
2019-05-09T13:45:10.080Z,19.50
2019-05-09T13:47:40.408Z,19.70
2019-05-09T13:50:10.716Z,19.70
2019-05-09T13:52:40.959Z,19.70
2019-05-09T13:55:11.279Z,19.80
2019-05-09T13:57:41.577Z,19.40
2019-05-09T14:00:11.858Z,19.00
2019-05-09T14:02:45.081Z,18.70
2019-05-09T14:05:14.808Z,18.60
2019-05-09T14:07:45.097Z,18.60
2019-05-09T14:10:17.608Z,18.40
2019-05-09T14:13:04.560Z,18.10
2019-05-09T14:15:19.263Z,17.70
2019-05-09T14:17:53.651Z,17.20
2019-05-09T14:20:21.520Z,16.50
2019-05-09T14:22:52.063Z,16.00
2019-05-09T14:25:23.495Z,15.90
2019-05-09T14:27:53.773Z,16.40
2019-05-09T14:30:24.257Z,18.00
2019-05-09T14:32:54.955Z,19.80
2019-05-09T14:35:27.770Z,22.10
2019-05-09T14:37:59.166Z,24.60
2019-05-09T14:40:29.515Z,27.10
2019-05-09T14:42:59.797Z,27.70
2019-05-09T14:45:30.081Z,28.20
2019-05-09T14:48:00.356Z,29.40
2019-05-09T14:50:30.897Z,30.40
2019-05-09T14:53:01.157Z,30.20
2019-05-09T14:55:31.395Z,29.60
2019-05-09T14:58:01.668Z,29.70
2019-05-09T15:00:31.956Z,31.00
2019-05-09T15:03:02.186Z,31.10
2019-05-09T15:05:33.107Z,31.50
2019-05-09T15:08:03.356Z,31.40
2019-05-09T15:10:33.810Z,32.20
2019-05-09T15:13:04.054Z,32.90
2019-05-09T15:15:34.333Z,32.00
2019-05-09T15:18:04.652Z,31.90
2019-05-09T15:20:34.934Z,31.10
2019-05-09T15:23:05.207Z,29.30
2019-05-09T15:25:35.455Z,29.50
2019-05-09T15:28:08.287Z,29.50
2019-05-09T15:30:38.550Z,29.10
2019-05-09T15:33:08.964Z,29.40
2019-05-09T15:35:39.290Z,29.20
2019-05-09T15:38:09.515Z,27.60
2019-05-09T15:40:40.727Z,27.30
2019-05-09T15:43:10.987Z,28.30
2019-05-09T15:45:46.074Z,28.70
2019-05-09T15:48:18.118Z,28.40
2019-05-09T15:50:48.555Z,28.40
2019-05-09T15:53:18.834Z,29.20
2019-05-09T15:55:49.083Z,27.60
2019-05-09T15:58:19.336Z,25.70
2019-05-09T16:00:50.101Z,23.90
2019-05-09T16:03:20.397Z,22.50
2019-05-09T16:05:50.622Z,21.50
2019-05-09T16:08:20.946Z,21.70
2019-05-09T16:10:51.212Z,21.80
2019-05-09T16:13:21.459Z,21.50
2019-05-09T16:15:51.759Z,21.00
2019-05-09T16:18:22.036Z,20.50
2019-05-09T16:20:52.363Z,20.00
2019-05-09T16:23:22.670Z,19.70
2019-05-09T16:25:52.997Z,19.30
2019-05-09T16:28:23.239Z,18.80
2019-05-09T16:30:53.551Z,18.50
2019-05-09T16:33:23.839Z,18.40
2019-05-09T16:35:54.104Z,18.20
2019-05-09T16:38:38.844Z,18.00
2019-05-09T16:40:58.227Z,18.00
2019-05-09T16:43:28.482Z,18.00
2019-05-09T16:45:58.836Z,18.10
2019-05-09T16:48:29.159Z,18.30
2019-05-09T16:51:03.178Z,18.40
2019-05-09T16:53:31.418Z,18.50
2019-05-09T16:56:01.647Z,18.40
2019-05-09T16:58:32.121Z,18.10
2019-05-09T17:01:02.373Z,17.90
2019-05-09T17:03:32.627Z,17.80
2019-05-09T17:06:02.877Z,17.70
2019-05-09T17:08:33.429Z,17.70
2019-05-09T17:11:03.710Z,17.50
2019-05-09T17:13:33.998Z,17.20
2019-05-09T17:16:07.401Z,17.00
2019-05-09T17:18:38.149Z,16.90
2019-05-09T17:21:18.719Z,16.80
2019-05-09T17:23:47.928Z,16.60
2019-05-09T17:26:19.254Z,16.60
2019-05-09T17:28:49.544Z,16.50
2019-05-09T17:31:19.905Z,16.50
2019-05-09T17:33:50.208Z,16.40
2019-05-09T17:36:20.714Z,16.40
2019-05-09T17:38:51.040Z,16.40
2019-05-09T17:41:21.293Z,16.70
2019-05-09T17:43:51.571Z,16.70
2019-05-09T17:46:24.449Z,16.80
2019-05-09T17:48:53.910Z,16.90
2019-05-09T17:51:33.037Z,16.80
2019-05-09T17:53:58.382Z,16.90
2019-05-09T17:56:28.110Z,16.80
2019-05-09T17:58:58.535Z,16.90
2019-05-09T18:01:29.004Z,16.90
2019-05-09T18:03:59.811Z,16.80
2019-05-09T18:06:30.077Z,16.70
2019-05-09T18:09:00.578Z,16.50
2019-05-09T18:11:30.899Z,16.40
2019-05-09T18:14:01.163Z,16.20
2019-05-09T18:16:31.446Z,15.90
2019-05-09T18:19:01.689Z,15.70
2019-05-09T18:21:47.270Z,15.50
2019-05-09T18:24:04.679Z,15.20
2019-05-09T18:26:34.950Z,14.90
2019-05-09T18:29:05.411Z,14.60
2019-05-09T18:31:43.157Z,14.20
2019-05-09T18:34:13.415Z,14.00
2019-05-09T18:36:43.980Z,13.80
2019-05-09T18:39:14.225Z,13.60
2019-05-09T18:41:44.601Z,13.40
2019-05-09T18:44:14.879Z,13.20
2019-05-09T18:46:45.377Z,13.10
2019-05-09T18:49:15.663Z,13.00
2019-05-09T18:51:45.940Z,12.90
2019-05-09T18:54:16.434Z,12.80
2019-05-09T18:56:46.690Z,12.70
2019-05-09T18:59:17.076Z,12.70
2019-05-09T19:01:47.473Z,12.70
2019-05-09T19:04:17.768Z,12.60
2019-05-09T19:06:48.006Z,12.60
2019-05-09T19:09:18.288Z,12.50
2019-05-09T19:11:48.633Z,12.40
2019-05-09T19:14:20.872Z,12.30
2019-05-09T19:17:03.157Z,12.10
2019-05-09T19:19:35.015Z,12.00
2019-05-09T19:22:21.396Z,11.90
2019-05-09T19:24:38.542Z,11.80
2019-05-09T19:27:09.107Z,11.70
2019-05-09T19:29:39.391Z,11.60
2019-05-09T19:32:09.626Z,11.50
2019-05-09T19:34:40.309Z,11.60
2019-05-09T19:37:10.575Z,11.70
2019-05-09T19:39:40.845Z,11.70
2019-05-09T19:42:11.194Z,11.70
2019-05-09T19:44:41.481Z,11.70
2019-05-09T19:47:11.722Z,11.70
2019-05-09T19:49:42.009Z,11.60
2019-05-09T19:52:12.328Z,11.50
2019-05-09T19:54:42.589Z,11.40
2019-05-09T19:57:12.876Z,11.40
2019-05-09T19:59:43.212Z,11.30
2019-05-09T20:02:13.607Z,11.30
2019-05-09T20:04:43.891Z,11.30
2019-05-09T20:07:14.193Z,11.20
2019-05-09T20:09:49.173Z,11.20
2019-05-09T20:12:26.762Z,11.20
2019-05-09T20:14:57.038Z,11.20
2019-05-09T20:17:27.476Z,11.20
2019-05-09T20:19:57.744Z,11.20
2019-05-09T20:22:28.054Z,11.30
2019-05-09T20:24:58.318Z,11.40
2019-05-09T20:27:28.926Z,11.50
2019-05-09T20:29:59.318Z,11.60
2019-05-09T20:32:29.700Z,11.60
2019-05-09T20:35:00.018Z,11.60
2019-05-09T20:37:30.487Z,11.60
2019-05-09T20:40:00.920Z,11.50
2019-05-09T20:42:31.624Z,11.50
2019-05-09T20:45:02.068Z,11.50
2019-05-09T20:47:33.900Z,11.50
2019-05-09T20:50:05.872Z,11.50
2019-05-09T20:52:36.435Z,11.50
2019-05-09T20:55:07.195Z,11.60
2019-05-09T20:57:37.632Z,11.60
2019-05-09T21:00:08.203Z,11.60
2019-05-09T21:02:38.735Z,11.70
2019-05-09T21:05:09.167Z,11.80
2019-05-09T21:07:39.608Z,11.80
2019-05-09T21:10:10.085Z,11.70
2019-05-09T21:12:40.529Z,11.70
2019-05-09T21:15:11.386Z,11.60
2019-05-09T21:17:41.825Z,11.60
2019-05-09T21:20:12.296Z,11.60
2019-05-09T21:22:42.911Z,11.60
2019-05-09T21:25:15.035Z,11.50
2019-05-09T21:27:45.501Z,11.50
2019-05-09T21:30:16.025Z,11.40
2019-05-09T21:32:46.494Z,11.30
2019-05-09T21:35:16.823Z,11.20
2019-05-09T21:37:47.112Z,11.10
2019-05-09T21:40:17.749Z,11.00
2019-05-09T21:42:48.015Z,10.90
2019-05-09T21:45:18.287Z,10.80
2019-05-09T21:47:49.271Z,10.70
2019-05-09T21:50:19.867Z,10.70
2019-05-09T21:52:50.115Z,10.70
2019-05-09T21:55:20.463Z,10.60
2019-05-09T21:57:50.723Z,10.60
2019-05-09T22:00:29.449Z,10.70
2019-05-09T22:02:59.800Z,10.60
2019-05-09T22:05:30.054Z,10.50
2019-05-09T22:08:00.330Z,10.50
2019-05-09T22:10:30.578Z,10.40
2019-05-09T22:13:00.827Z,10.30
2019-05-09T22:15:31.199Z,10.20
2019-05-09T22:18:01.478Z,10.10
2019-05-09T22:20:31.770Z,10.10
2019-05-09T22:23:02.062Z,10.10
2019-05-09T22:25:32.487Z,10.10
2019-05-09T22:28:02.737Z,10.00
2019-05-09T22:30:33.013Z,10.00
2019-05-09T22:33:03.261Z,10.00
2019-05-09T22:35:33.506Z,9.90
2019-05-09T22:38:03.767Z,9.90
2019-05-09T22:40:34.005Z,9.90
2019-05-09T22:43:04.258Z,9.90
2019-05-09T22:45:34.507Z,9.80
2019-05-09T22:48:05.052Z,9.90
2019-05-09T22:50:35.304Z,9.90
2019-05-09T22:53:05.560Z,10.00
2019-05-09T22:55:35.815Z,10.00
2019-05-09T22:58:06.261Z,9.90
2019-05-09T23:00:36.593Z,9.90
2019-05-09T23:03:06.895Z,10.00
2019-05-09T23:05:37.183Z,10.00
2019-05-09T23:08:07.437Z,10.00
2019-05-09T23:10:37.716Z,9.90
2019-05-09T23:13:08.000Z,9.80
2019-05-09T23:15:38.248Z,9.70
2019-05-09T23:18:08.537Z,9.60
2019-05-09T23:20:41.373Z,9.50
2019-05-09T23:23:22.442Z,9.30
2019-05-09T23:25:52.758Z,9.30
2019-05-09T23:28:23.473Z,9.10
2019-05-09T23:30:55.463Z,9.10
2019-05-09T23:33:27.335Z,9.00
2019-05-09T23:35:57.588Z,8.90
2019-05-09T23:38:27.822Z,8.80
2019-05-09T23:40:58.057Z,8.80
2019-05-09T23:43:28.336Z,8.70
2019-05-09T23:45:58.598Z,8.70
2019-05-09T23:48:28.844Z,8.60
2019-05-09T23:50:59.100Z,8.60
2019-05-09T23:53:36.368Z,8.60
2019-05-09T23:56:23.990Z,8.60
2019-05-09T23:59:12.467Z,8.50
